Relevés horaires Matro (Suisse)


Relevés horaires à Matro - Mercredi 15 Oct. 2014
Heure UTC1 Température [°C] Vent [km/h] Hum. [%] Pres.4 [hPa] Visi. [Km] Nébu. [octa] Préc.5 [mm] Cond.
2m. Res. Ros. Dir.2 Vit. Moy. Raf.3
23:00 4.6 0.5 4.3 SE 20.4 22.2 24.1 98 850(0.0/3h) -- -- -- --
22:00 4.9 1.7 3.4 SSE 14.8 18.5 20.4 90 850(0.2/3h) -- -- -- --
21:00 4.9 1.1 4.9 SSE 18.5 24.1 31.5 100 850(0.2/3h) -- -- -- --
20:00 4.8 0.6 4.0 SSE 22.2 24.1 27.8 95 850(0.6/3h) -- -- -- --
19:00 4.7 0.2 4.1 SSE 24.1 24.1 31.5 96 850(0.7/3h) -- -- -- --
18:00 5.2 1.7 4.6 SSE 16.7 25.9 29.6 96 850(0.6/3h) -- -- -- --
17:00 5.0 0.4 3.0 SE 25.9 25.9 27.8 87 850(0.1/3h) -- -- -- --
16:00 5.3 2.4 3.9 SE 13.0 13.0 14.8 91 850(-0.2/3h) -- -- -- --
15:00 5.2 3.1 4.1 SSE 9.3 14.8 18.5 93 850(0.1/3h) -- -- -- --
14:00 5.4 2.9 3.8 SE 11.1 14.8 18.5 89 850(-0.2/3h) -- -- -- --
13:00 5.1 2.6 4.0 SSE 11.1 11.1 18.5 93 850(-0.1/3h) -- -- -- --
12:00 6.0 4.5 3.6 SE 7.4 13.0 16.7 85 850(-0.2/3h) -- -- -- --
11:00 5.7 3.3 3.0 SSE 11.1 11.1 16.7 83 850(0.1/3h) -- -- -- --
10:00 5.8 4.2 4.6 SSE 7.4 7.4 11.1 92 850(0.3/3h) -- -- -- --
09:00 5.4 5.4 5.4 ESE 1.9 9.3 11.1 100 850(0.1/3h) -- -- -- --
08:00 5.0 5.0 5.0 SSE 3.7 5.6 9.3 100 850(-0.1/3h) -- -- -- --
07:00 5.1 4 3.7 ENE 5.6 9.3 11.1 91 850(-0.2/3h) -- -- -- --
06:00 4.5 2.7 3.4 E 7.4 20.4 24.1 93 850(-0.2/3h) -- -- -- --
05:00 4.4 1 3.4 SSE 14.8 16.7 18.5 93 850(-0.4/3h) -- -- -- --
04:00 4.4 1 3.6 ESE 14.8 16.7 20.4 95 850(-0.7/3h) -- -- -- --
03:00 4.2 0.5 3.6 SE 16.7 20.4 24.1 96 850(-1.1/3h) -- -- -- --
02:00 4.0 0 3.5 SE 18.5 18.5 24.1 97 850(-1.1/3h) -- -- -- --
01:00 3.1 0.6 1.9 E 9.3 11.1 20.4 92 850(-0.9/3h) -- -- -- --
00:00 2.8 0.2 2.8 E 9.3 33.3 40.7 100 850(-0.5/3h) -- -- -- --

1 Coordinated Universal Time. Actuellement il est 02:00 locale et 00:00 UTC.

2 Le vent souffle depuis la direction indiquée vers la direction oposée.

3 Les rafales max. sont disponible 40 min après l'heure du relevé.

4 Pour les stations d'altitude (plus de 600m) le géopotentiel du niveau le plus proche de la pression obligatoire est indiqué.

5 Les stations disposant d'un diffuseur peuvent indiquer "trace". Cela signifie que des précipitations ont touchés le sol mais que la quantité est inférieure à 0.1 mm.

Copyright

Les données affichées sur cette page sont la propriété exclusive de Météo Suisse.

Récapitulatif de la journée
Température [°C] Vent [km/h] Ensoleillement4 [h] Precipitations totale5 [mm] Pression [Hpa]
Min1 Max.2 Moy.3 Max. Min Max.
2.7 6.7 17.1 40.7 2 h 36 min 0 850.0 850.0

1 Température minimale relevée entre 18:00 UTC la veille et 18:00 UTC le jour donné.

2 Température maximale relevée entre 06:00 UTC le jour donné et 06:00 UTC le lendemain.

3 Vent moyen de la journée basé sur les relevés horaires.

4 Ensoleillement en heures relevé entre 06:00 UTC la veille et 06:00 UTC le jour donné.

5 Précipitations totales tombées entre 06:00 UTC la jour donné et 06:00 UTC le lendemain.

Graphiques horaires